Time;durP1;ratioP1;P1;durP2;ratioP2;P2;SDS_P1;SDS_P2;PMS_P1;PMS_P2;Temp;Humidity;BMP_temperature;BMP_pressure;BME280_temperature;BME280_humidity;BME280_pressure;Samples;Min_cycle;Max_cycle;Signal;HPM_P1;HPM_P2
2024/02/05 00:01:19;;;;;;;;;0.00;0.00;;;;;9.84;100.00;98166.75;6247813;28;96391;-57
2024/02/05 00:04:22;;;;;;;;;0.50;0.50;;;;;9.78;100.00;98175.75;6260514;27;96309;-57
2024/02/05 00:07:25;;;;;;;;;0.00;0.00;;;;;9.85;100.00;98178.34;6260066;27;96300;-57
2024/02/05 00:10:30;;;;;;;;;0.80;0.80;;;;;9.91;100.00;98175.53;6275396;27;96284;-57
2024/02/05 00:13:33;;;;;;;;;1.00;1.00;;;;;9.81;100.00;98167.22;6274198;27;96439;-57
2024/02/05 00:16:37;;;;;;;;;0.20;0.20;;;;;9.87;100.00;98157.41;6267761;27;96319;-57
2024/02/05 00:19:40;;;;;;;;;0.60;0.60;;;;;9.91;100.00;98153.19;6251658;27;96317;-57
2024/02/05 00:22:43;;;;;;;;;1.00;1.00;;;;;9.98;100.00;98148.47;6236921;28;98881;-57
2024/02/05 00:25:48;;;;;;;;;1.00;1.00;;;;;10.15;100.00;98162.03;6225212;27;98842;-57
2024/02/05 00:28:51;;;;;;;;;1.00;1.00;;;;;10.10;100.00;98146.59;6252851;28;96338;-57
2024/02/05 00:31:54;;;;;;;;;1.75;1.00;;;;;10.27;100.00;98160.16;6249543;28;96274;-57
2024/02/05 00:34:58;;;;;;;;;2.00;1.00;;;;;10.31;100.00;98150.59;6246534;28;96465;-57
2024/02/05 00:38:03;;;;;;;;;2.00;1.00;;;;;10.18;100.00;98156.22;6248485;28;97164;-57
2024/02/05 00:41:08;;;;;;;;;1.00;1.00;;;;;10.26;100.00;98153.16;6253291;27;96529;-57
2024/02/05 00:44:11;;;;;;;;;2.00;1.00;;;;;10.22;100.00;98150.09;6249277;28;96361;-57
2024/02/05 00:47:14;;;;;;;;;4.00;3.00;;;;;10.18;100.00;98151.63;6249011;27;96811;-57
2024/02/05 00:50:17;;;;;;;;;1.75;1.00;;;;;10.23;100.00;98142.84;6252411;27;96303;-57
2024/02/05 00:53:21;;;;;;;;;3.00;3.00;;;;;10.19;100.00;98141.69;6250206;27;97764;-57
2024/02/05 00:56:26;;;;;;;;;2.00;2.00;;;;;10.09;100.00;98142.25;6246633;27;96407;-57
2024/02/05 00:59:29;;;;;;;;;2.00;2.00;;;;;10.11;100.00;98124.00;6246241;28;96434;-57
2024/02/05 01:02:32;;;;;;;;;1.00;1.00;;;;;10.13;100.00;98134.50;6246240;28;96369;-57
2024/02/05 01:05:35;;;;;;;;;2.00;2.00;;;;;10.10;100.00;98137.69;6245783;28;96388;-57
2024/02/05 01:08:39;;;;;;;;;3.40;2.00;;;;;10.16;100.00;98136.78;6246247;28;96686;-57
2024/02/05 01:11:44;;;;;;;;;2.00;1.00;;;;;10.19;100.00;98139.81;6245718;27;96352;-57
2024/02/05 01:14:47;;;;;;;;;1.20;1.20;;;;;10.20;100.00;98133.38;6247274;28;96536;-57
2024/02/05 01:17:50;;;;;;;;;1.00;1.00;;;;;9.93;100.00;98124.94;6250445;28;96688;-57
2024/02/05 01:20:53;;;;;;;;;2.00;1.00;;;;;10.11;100.00;98125.88;6249977;28;96375;-57
2024/02/05 01:23:56;;;;;;;;;1.25;1.25;;;;;10.04;100.00;98130.56;6268195;27;96345;-57
2024/02/05 01:27:01;;;;;;;;;0.20;0.20;;;;;10.10;100.00;98133.13;6274989;27;96206;-57
2024/02/05 01:30:05;;;;;;;;;0.50;0.50;;;;;10.11;100.00;98107.84;6273237;27;96251;-57
2024/02/05 01:33:08;;;;;;;;;0.60;0.00;;;;;10.07;100.00;98113.94;6272961;27;96860;-57
2024/02/05 01:36:11;;;;;;;;;0.00;0.00;;;;;10.09;100.00;98109.94;6272373;27;96349;-57
2024/02/05 01:39:15;;;;;;;;;0.00;0.00;;;;;9.98;100.00;98098.13;6235396;27;96646;-57
2024/02/05 01:42:20;;;;;;;;;0.00;0.00;;;;;10.08;100.00;98094.00;6251228;27;96543;-57
2024/02/05 01:45:23;;;;;;;;;0.20;0.00;;;;;10.07;100.00;98085.13;6250833;27;96460;-57
2024/02/05 01:48:31;;;;;;;;;0.40;0.40;;;;;10.09;100.00;98087.56;6267809;27;96415;-57
2024/02/05 01:51:40;;;;;;;;;0.40;0.00;;;;;10.04;100.00;98082.09;6277057;27;96325;-57
2024/02/05 01:54:44;;;;;;;;;0.00;0.00;;;;;10.02;100.00;98083.13;6252252;27;96264;-58
2024/02/05 01:57:49;;;;;;;;;1.00;1.00;;;;;9.88;100.00;98056.72;6250540;28;98290;-58
2024/02/05 02:00:52;;;;;;;;;1.00;1.00;;;;;9.97;100.00;98066.03;6269522;27;97685;-58
2024/02/05 02:03:56;;;;;;;;;0.00;0.00;;;;;10.02;100.00;98059.97;6256741;22;97141;-56
2024/02/05 02:07:03;;;;;;;;;1.00;1.00;;;;;9.97;100.00;98066.88;6246196;27;96458;-56
2024/02/05 02:10:07;;;;;;;;;2.00;0.25;;;;;10.05;100.00;98062.19;6239702;28;96326;-56
2024/02/05 02:13:12;;;;;;;;;0.00;0.00;;;;;10.06;100.00;98048.50;6239256;28;96325;-56
2024/02/05 02:16:27;;;;;;;;;0.40;0.40;;;;;9.99;100.00;98045.09;6241818;27;96427;-56
2024/02/05 02:19:38;;;;;;;;;1.00;0.60;;;;;9.96;100.00;98050.97;6258857;27;96334;-56
2024/02/05 02:22:53;;;;;;;;;1.00;1.00;;;;;9.90;100.00;98041.97;6242149;27;96746;-56
2024/02/05 02:25:59;;;;;;;;;0.00;0.00;;;;;9.72;100.00;98044.00;6242293;27;96198;-56
2024/02/05 02:29:02;;;;;;;;;0.00;0.00;;;;;9.52;100.00;98039.81;6231128;27;96664;-56
2024/02/05 02:32:17;;;;;;;;;0.00;0.00;;;;;9.63;100.00;98038.13;6242429;27;96428;-56
2024/02/05 02:35:25;;;;;;;;;1.00;1.00;;;;;9.71;100.00;98026.22;6264304;27;96754;-56
2024/02/05 02:38:33;;;;;;;;;0.00;0.00;;;;;9.86;100.00;98021.16;6234606;28;96757;-56
2024/02/05 02:41:42;;;;;;;;;0.00;0.00;;;;;9.91;100.00;98032.03;6239920;28;96388;-56
2024/02/05 02:44:47;;;;;;;;;0.00;0.00;;;;;10.00;100.00;98014.44;6240043;27;96250;-56
2024/02/05 02:47:51;;;;;;;;;0.00;0.00;;;;;10.03;100.00;98016.63;6239194;28;96389;-56
2024/02/05 02:50:54;;;;;;;;;1.00;1.00;;;;;9.95;100.00;98009.78;6242733;27;96207;-56
2024/02/05 02:53:57;;;;;;;;;0.60;0.60;;;;;9.95;100.00;98000.88;6248792;27;96371;-56
2024/02/05 02:57:02;;;;;;;;;0.00;0.00;;;;;9.79;100.00;97985.47;6259957;27;96291;-56
2024/02/05 03:00:08;;;;;;;;;1.00;0.00;;;;;9.79;100.00;97990.84;6264880;27;96610;-56
2024/02/05 03:03:11;;;;;;;;;0.80;0.00;;;;;9.87;100.00;97983.19;6267626;27;96532;-56
2024/02/05 03:06:15;;;;;;;;;0.00;0.00;;;;;9.86;100.00;97978.91;6266975;27;96729;-56
2024/02/05 03:09:18;;;;;;;;;0.00;0.00;;;;;9.79;100.00;97953.16;6242321;28;96138;-56
2024/02/05 03:12:22;;;;;;;;;1.00;1.00;;;;;9.92;100.00;97959.06;6224706;27;96299;-56
2024/02/05 03:15:25;;;;;;;;;2.00;2.00;;;;;10.02;100.00;97961.13;6234410;28;96467;-56
2024/02/05 03:18:29;;;;;;;;;1.60;1.60;;;;;9.99;100.00;97959.75;6249221;27;96390;-55
2024/02/05 03:21:32;;;;;;;;;2.00;1.00;;;;;10.04;100.00;97960.91;6256489;28;96284;-55
2024/02/05 03:24:35;;;;;;;;;1.80;1.80;;;;;9.97;100.00;97944.88;6274628;27;96378;-55
2024/02/05 03:27:40;;;;;;;;;2.00;1.00;;;;;9.97;100.00;97934.13;6256740;27;96336;-55
2024/02/05 03:30:43;;;;;;;;;3.00;3.00;;;;;10.03;100.00;97933.16;6256185;28;96482;-55
2024/02/05 03:33:47;;;;;;;;;2.00;2.00;;;;;10.11;100.00;97938.19;6263677;27;96341;-55
2024/02/05 03:36:50;;;;;;;;;3.00;3.00;;;;;10.21;100.00;97926.81;6277341;27;96246;-55
2024/02/05 03:39:53;;;;;;;;;2.80;2.00;;;;;10.07;100.00;97910.06;6256735;27;96500;-55
2024/02/05 03:42:57;;;;;;;;;2.00;2.00;;;;;10.24;100.00;97904.75;6259784;27;96937;-55
2024/02/05 03:46:01;;;;;;;;;0.20;0.20;;;;;10.31;100.00;97890.06;6272179;27;96233;-55
2024/02/05 03:49:04;;;;;;;;;1.00;1.00;;;;;10.31;100.00;97886.56;6270823;27;96464;-55
2024/02/05 03:52:07;;;;;;;;;1.00;1.00;;;;;10.30;100.00;97882.25;6238267;28;96673;-55
2024/02/05 03:55:11;;;;;;;;;0.00;0.00;;;;;10.30;100.00;97879.53;6256621;28;96393;-55
2024/02/05 03:58:16;;;;;;;;;1.00;1.00;;;;;10.35;100.00;97879.63;6256998;27;96552;-55
2024/02/05 04:01:19;;;;;;;;;0.00;0.00;;;;;10.37;100.00;97867.53;6251739;27;96745;-56
2024/02/05 04:04:23;;;;;;;;;0.50;0.50;;;;;10.38;100.00;97868.34;6243982;28;96324;-55
2024/02/05 04:07:26;;;;;;;;;0.00;0.00;;;;;10.37;100.00;97856.75;6252337;27;96280;-56
2024/02/05 04:10:29;;;;;;;;;1.00;1.00;;;;;10.30;100.00;97845.34;6253686;27;96363;-55
2024/02/05 04:13:34;;;;;;;;;1.00;1.00;;;;;10.39;100.00;97845.75;6251983;27;96298;-55
2024/02/05 04:16:37;;;;;;;;;0.80;0.80;;;;;10.40;100.00;97828.53;6243741;27;96317;-55
2024/02/05 04:19:43;;;;;;;;;1.00;0.80;;;;;10.42;100.00;97832.59;6252843;27;96865;-55
2024/02/05 04:22:48;;;;;;;;;0.00;0.00;;;;;10.43;100.00;97811.84;6247188;28;96637;-56
2024/02/05 04:25:51;;;;;;;;;1.00;1.00;;;;;10.43;100.00;97815.38;6254885;27;96349;-55
2024/02/05 04:28:56;;;;;;;;;1.00;1.00;;;;;10.31;100.00;97803.06;6268561;27;96287;-56
2024/02/05 04:31:59;;;;;;;;;0.00;0.00;;;;;10.32;100.00;97783.94;6245146;27;96280;-55
2024/02/05 04:35:02;;;;;;;;;1.00;1.00;;;;;10.28;100.00;97769.34;6261776;27;97132;-55
2024/02/05 04:38:05;;;;;;;;;1.00;1.00;;;;;10.27;100.00;97764.19;6245043;27;96248;-55
2024/02/05 04:41:09;;;;;;;;;1.20;1.20;;;;;10.35;100.00;97755.72;6242477;27;96188;-55
2024/02/05 04:44:14;;;;;;;;;1.00;1.00;;;;;10.50;100.00;97763.19;6241385;28;96397;-55
2024/02/05 04:47:17;;;;;;;;;1.00;1.00;;;;;10.57;100.00;97747.63;6240201;27;96430;-55
2024/02/05 04:50:20;;;;;;;;;2.00;2.00;;;;;10.52;100.00;97751.09;6239561;27;96342;-56
2024/02/05 04:53:24;;;;;;;;;1.80;1.80;;;;;10.67;100.00;97729.72;6238696;27;96519;-56
2024/02/05 04:56:27;;;;;;;;;1.75;1.75;;;;;10.64;100.00;97719.47;6237784;28;96388;-56
2024/02/05 04:59:31;;;;;;;;;3.00;3.00;;;;;10.74;100.00;97724.97;6234636;27;97483;-55
2024/02/05 05:02:35;;;;;;;;;2.00;2.00;;;;;10.89;100.00;97724.34;6234414;27;96491;-55
2024/02/05 05:05:38;;;;;;;;;3.00;2.00;;;;;11.02;100.00;97726.66;6237023;27;96410;-55
2024/02/05 05:08:41;;;;;;;;;1.00;1.00;;;;;10.76;100.00;97663.53;6232973;27;96646;-55
2024/02/05 05:11:44;;;;;;;;;1.00;1.00;;;;;11.23;100.00;97723.13;6221078;27;97414;-55
2024/02/05 05:14:48;;;;;;;;;1.00;1.00;;;;;11.21;100.00;97692.88;6249013;27;96439;-56
2024/02/05 05:17:51;;;;;;;;;1.00;1.00;;;;;11.40;100.00;97703.28;6245592;27;96247;-55
2024/02/05 05:20:55;;;;;;;;;1.80;1.80;;;;;11.64;100.00;97710.81;6255785;27;97590;-56
2024/02/05 05:23:58;;;;;;;;;0.50;0.50;;;;;11.76;100.00;97707.16;6236302;27;96722;-56
2024/02/05 05:27:01;;;;;;;;;0.00;0.00;;;;;11.89;100.00;97710.22;6239364;27;97370;-56
2024/02/05 05:30:07;;;;;;;;;1.40;1.40;;;;;12.02;100.00;97725.97;6235618;27;96401;-55
2024/02/05 05:33:10;;;;;;;;;1.00;1.00;;;;;12.12;100.00;97703.63;6240682;27;96350;-56
2024/02/05 05:36:13;;;;;;;;;2.00;2.00;;;;;12.03;100.00;97697.91;6236728;27;96682;-56
2024/02/05 05:39:16;;;;;;;;;1.00;1.00;;;;;11.93;100.00;97691.63;6221600;27;98096;-55
2024/02/05 05:42:20;;;;;;;;;1.40;1.40;;;;;12.06;100.00;97702.00;6237368;28;96443;-56
2024/02/05 05:45:27;;;;;;;;;1.00;1.00;;;;;12.21;100.00;97710.19;6243478;27;97779;-56
2024/02/05 05:48:30;;;;;;;;;1.00;1.00;;;;;12.32;100.00;97713.75;6244466;27;96432;-56
2024/02/05 05:51:34;;;;;;;;;1.80;1.80;;;;;12.28;100.00;97718.88;6234425;27;96472;-56
2024/02/05 05:54:38;;;;;;;;;1.00;1.00;;;;;12.12;100.00;97698.22;6234944;27;96887;-56
2024/02/05 05:57:41;;;;;;;;;1.00;1.00;;;;;12.19;100.00;97698.00;6237539;27;96970;-55
2024/02/05 06:00:46;;;;;;;;;2.00;1.00;;;;;12.22;100.00;97706.41;6239130;27;96285;-56
2024/02/05 06:03:50;;;;;;;;;2.00;2.00;;;;;12.30;100.00;97714.03;6221479;28;96502;-56
2024/02/05 06:06:53;;;;;;;;;1.00;1.00;;;;;12.30;100.00;97705.09;6238738;27;96206;-55
2024/02/05 06:09:56;;;;;;;;;1.20;1.20;;;;;12.27;100.00;97716.41;6245907;27;96500;-55
2024/02/05 06:13:02;;;;;;;;;1.00;1.00;;;;;12.36;100.00;97725.69;6238748;28;96338;-55
2024/02/05 06:16:09;;;;;;;;;1.00;1.00;;;;;12.54;100.00;97726.06;6236997;28;96333;-55
2024/02/05 06:19:12;;;;;;;;;1.00;1.00;;;;;12.57;100.00;97716.59;6238293;28;96540;-55
2024/02/05 06:22:16;;;;;;;;;1.00;1.00;;;;;12.62;100.00;97711.22;6237918;28;96387;-56
2024/02/05 06:25:19;;;;;;;;;2.00;2.00;;;;;12.61;100.00;97739.31;6236946;28;96844;-55
2024/02/05 06:28:22;;;;;;;;;1.00;1.00;;;;;12.58;100.00;97740.69;6237183;28;96407;-55
2024/02/05 06:31:27;;;;;;;;;1.40;1.00;;;;;12.58;100.00;97735.28;6216274;27;97497;-55
2024/02/05 06:34:30;;;;;;;;;2.00;2.00;;;;;12.66;100.00;97708.81;6239363;27;96755;-55
2024/02/05 06:37:33;;;;;;;;;1.50;1.00;;;;;12.61;100.00;97728.50;6231097;28;98886;-55
2024/02/05 06:40:37;;;;;;;;;1.00;1.00;;;;;12.73;100.00;97744.53;6237321;27;96401;-55
2024/02/05 06:43:40;;;;;;;;;1.00;1.00;;;;;12.59;100.00;97744.19;6235384;28;96460;-55
2024/02/05 06:46:44;;;;;;;;;1.00;1.00;;;;;12.66;100.00;97744.75;6242805;27;97501;-55
2024/02/05 06:49:47;;;;;;;;;0.00;0.00;;;;;12.59;100.00;97749.59;6264801;27;96274;-55
2024/02/05 06:52:51;;;;;;;;;0.80;0.00;;;;;12.61;100.00;97735.84;6266500;27;96822;-55
2024/02/05 06:55:54;;;;;;;;;1.00;1.00;;;;;12.73;100.00;97737.25;6267352;27;96482;-55
2024/02/05 06:58:57;;;;;;;;;1.00;1.00;;;;;12.70;100.00;97732.38;6268662;27;96461;-55
2024/02/05 07:02:03;;;;;;;;;0.00;0.00;;;;;12.75;100.00;97740.50;6259213;27;96308;-55
2024/02/05 07:05:07;;;;;;;;;1.20;1.00;;;;;12.84;100.00;97744.34;6242783;28;96216;-55
2024/02/05 07:08:10;;;;;;;;;1.60;1.60;;;;;12.78;100.00;97731.84;6242950;28;96207;-55
2024/02/05 07:11:14;;;;;;;;;2.00;1.40;;;;;12.81;100.00;97744.03;6242579;28;96356;-55
2024/02/05 07:14:17;;;;;;;;;1.00;1.00;;;;;12.54;100.00;97715.25;6241576;27;96749;-56
2024/02/05 07:17:31;;;;;;;;;1.00;1.00;;;;;12.94;100.00;97760.59;6253793;27;96493;-56
2024/02/05 07:20:34;;;;;;;;;2.20;2.20;;;;;13.00;100.00;97759.53;6267940;27;96286;-55
2024/02/05 07:23:37;;;;;;;;;2.00;2.00;;;;;12.99;100.00;97746.28;6248836;27;96385;-55
2024/02/05 07:26:40;;;;;;;;;3.00;2.40;;;;;13.18;100.00;97771.00;6249202;27;96429;-55
2024/02/05 07:29:45;;;;;;;;;1.00;1.00;;;;;13.18;100.00;97776.41;6266969;27;96262;-55
2024/02/05 07:32:49;;;;;;;;;3.00;3.00;;;;;13.22;100.00;97791.03;6267381;27;96366;-55
2024/02/05 07:35:52;;;;;;;;;2.00;2.00;;;;;13.30;100.00;97788.63;6269320;27;96424;-55
2024/02/05 07:38:56;;;;;;;;;2.40;2.00;;;;;13.38;100.00;97780.00;6271688;27;96900;-55
2024/02/05 07:41:59;;;;;;;;;2.00;2.00;;;;;13.27;100.00;97802.69;6271097;27;96623;-55
2024/02/05 07:45:02;;;;;;;;;1.00;1.00;;;;;13.27;100.00;97801.88;6270941;27;96687;-55
2024/02/05 07:48:09;;;;;;;;;2.00;2.00;;;;;13.37;100.00;97802.75;6271677;27;96371;-55
2024/02/05 07:51:12;;;;;;;;;2.00;2.00;;;;;13.37;100.00;97799.22;6272355;27;96312;-55
2024/02/05 07:54:15;;;;;;;;;3.00;3.00;;;;;13.64;100.00;97817.97;6271343;27;96524;-55
2024/02/05 07:57:19;;;;;;;;;2.00;2.00;;;;;13.85;100.00;97817.75;6271524;27;96535;-55
2024/02/05 08:00:22;;;;;;;;;2.00;2.00;;;;;13.92;100.00;97819.38;6268902;27;96316;-54
2024/02/05 08:03:26;;;;;;;;;1.00;1.00;;;;;14.05;100.00;97837.81;6266813;27;96347;-54
2024/02/05 08:06:29;;;;;;;;;2.00;2.00;;;;;13.98;100.00;97859.75;6273660;27;96445;-54
2024/02/05 08:09:34;;;;;;;;;2.00;1.20;;;;;13.83;100.00;97855.13;6274655;27;96275;-54
2024/02/05 08:12:39;;;;;;;;;1.00;1.00;;;;;13.83;100.00;97862.44;6274494;27;96585;-54
2024/02/05 08:15:42;;;;;;;;;3.00;3.00;;;;;13.85;100.00;97868.41;6274967;27;96273;-54
2024/02/05 08:18:47;;;;;;;;;2.00;2.00;;;;;13.78;100.00;97852.41;6274700;27;96475;-54
2024/02/05 08:21:51;;;;;;;;;1.00;1.00;;;;;13.70;100.00;97876.47;6225121;28;96306;-54
2024/02/05 08:24:54;;;;;;;;;1.00;1.00;;;;;13.74;100.00;97878.38;6224715;28;96437;-54
2024/02/05 08:27:59;;;;;;;;;1.40;1.40;;;;;13.62;100.00;97880.53;6223912;28;96829;-54
2024/02/05 08:31:03;;;;;;;;;2.00;2.00;;;;;13.64;100.00;97899.19;6206127;28;96317;-54
2024/02/05 08:34:07;;;;;;;;;4.00;3.50;;;;;13.70;100.00;97915.22;6223001;28;96552;-54
2024/02/05 08:37:11;;;;;;;;;2.00;1.00;;;;;13.71;100.00;97922.28;6223523;28;96139;-55
2024/02/05 08:40:14;;;;;;;;;2.00;2.00;;;;;13.72;100.00;97932.03;6222091;28;96399;-54
2024/02/05 08:43:17;;;;;;;;;3.00;2.00;;;;;13.78;100.00;97925.53;6223317;28;96447;-54
2024/02/05 08:46:20;;;;;;;;;2.40;2.40;;;;;13.83;100.00;97943.69;6224006;28;96679;-54
2024/02/05 08:49:25;;;;;;;;;3.00;3.00;;;;;13.82;100.00;97937.50;6223729;28;96375;-54
2024/02/05 08:52:29;;;;;;;;;3.40;3.00;;;;;13.92;100.00;97946.72;6206656;28;96629;-54
2024/02/05 08:55:32;;;;;;;;;3.20;2.80;;;;;13.91;100.00;97948.63;6224261;28;96336;-54
2024/02/05 08:58:35;;;;;;;;;3.40;3.40;;;;;13.85;100.00;97952.38;6225519;28;96361;-54
2024/02/05 09:01:38;;;;;;;;;2.67;2.00;;;;;13.77;100.00;97951.00;6224458;28;97519;-55
2024/02/05 09:04:43;;;;;;;;;2.60;2.60;;;;;13.70;100.00;97963.97;6225392;28;96298;-54
2024/02/05 09:07:46;;;;;;;;;3.50;3.00;;;;;13.78;100.00;97958.03;6224227;28;96303;-54
2024/02/05 09:10:50;;;;;;;;;4.00;3.00;;;;;13.85;100.00;97961.34;6224348;28;96281;-54
2024/02/05 09:13:53;;;;;;;;;2.60;2.60;;;;;13.79;100.00;97956.97;6246830;27;96313;-54
2024/02/05 09:16:56;;;;;;;;;3.00;3.00;;;;;13.82;100.00;97963.75;6274856;27;96890;-54
2024/02/05 09:20:00;;;;;;;;;4.00;3.00;;;;;13.80;100.00;97968.63;6274260;27;96363;-54
2024/02/05 09:23:05;;;;;;;;;2.00;2.00;;;;;13.85;100.00;97977.59;6274486;27;96379;-54
2024/02/05 09:26:08;;;;;;;;;3.00;3.00;;;;;13.87;100.00;97955.66;6274342;27;96419;-54
2024/02/05 09:29:11;;;;;;;;;3.80;3.80;;;;;13.87;100.00;97980.03;6242237;28;98443;-54
2024/02/05 09:32:14;;;;;;;;;2.00;2.00;;;;;13.89;100.00;97962.44;6248035;28;96339;-54
2024/02/05 09:35:19;;;;;;;;;2.00;2.00;;;;;13.87;100.00;97966.50;6249625;27;96261;-54
2024/02/05 09:38:23;;;;;;;;;3.00;3.00;;;;;13.86;100.00;97964.84;6248649;28;96672;-54
2024/02/05 09:41:35;;;;;;;;;5.00;3.60;;;;;13.84;100.00;97970.53;6232262;28;96426;-54
2024/02/05 09:44:39;;;;;;;;;3.00;2.80;;;;;13.81;100.00;97965.66;6249152;28;96678;-54
2024/02/05 09:47:42;;;;;;;;;5.00;3.25;;;;;13.85;100.00;97964.03;6250504;28;96373;-54
2024/02/05 09:50:47;;;;;;;;;2.00;2.00;;;;;13.74;100.00;97951.53;6250683;28;96392;-54
2024/02/05 09:53:51;;;;;;;;;2.00;2.00;;;;;13.70;100.00;97952.31;6251127;28;96336;-54
2024/02/05 09:57:08;;;;;;;;;2.00;2.00;;;;;13.75;100.00;97942.31;6231318;28;97207;-54
2024/02/05 10:00:12;;;;;;;;;3.00;3.00;;;;;13.72;100.00;97933.91;6250106;27;96826;-54
2024/02/05 10:03:17;;;;;;;;;2.00;2.00;;;;;13.76;100.00;97935.84;6250316;28;96404;-54
2024/02/05 10:06:25;;;;;;;;;2.00;2.00;;;;;13.68;100.00;97928.19;6251172;28;96354;-54
2024/02/05 10:09:30;;;;;;;;;2.80;2.00;;;;;13.64;100.00;97940.66;6251327;28;96314;-54
2024/02/05 10:12:37;;;;;;;;;1.20;1.20;;;;;13.71;100.00;97929.59;6250201;28;96320;-54
2024/02/05 10:15:41;;;;;;;;;2.40;2.00;;;;;13.51;100.00;97930.31;6233799;28;96964;-54
2024/02/05 10:18:44;;;;;;;;;2.00;1.00;;;;;13.52;100.00;97931.13;6249932;28;96451;-53
2024/02/05 10:21:49;;;;;;;;;3.00;3.00;;;;;13.45;100.00;97906.97;6220587;28;96328;-52
2024/02/05 10:24:53;;;;;;;;;2.00;2.00;;;;;13.40;100.00;97909.66;6238616;28;96431;-52
2024/02/05 10:28:01;;;;;;;;;3.00;3.00;;;;;13.34;100.00;97916.16;6238504;28;96391;-53
2024/02/05 10:31:05;;;;;;;;;1.00;1.00;;;;;13.48;100.00;97911.88;6238838;28;96281;-53
2024/02/05 10:34:08;;;;;;;;;1.00;1.00;;;;;13.26;100.00;97903.91;6238503;28;96290;-53
2024/02/05 10:37:15;;;;;;;;;3.00;2.00;;;;;13.35;100.00;97920.47;6238374;28;96408;-52
2024/02/05 10:40:19;;;;;;;;;2.00;2.00;;;;;13.47;100.00;97929.22;6238836;28;96296;-53
2024/02/05 10:43:22;;;;;;;;;2.20;2.00;;;;;13.50;100.00;97912.41;6238217;28;96343;-53
2024/02/05 10:46:32;;;;;;;;;2.00;2.00;;;;;13.46;100.00;97916.75;6229708;28;96732;-52
2024/02/05 10:49:35;;;;;;;;;2.00;2.00;;;;;13.50;100.00;97915.13;6238089;28;96877;-53
2024/02/05 10:52:40;;;;;;;;;3.00;2.20;;;;;13.44;100.00;97900.75;6238193;28;96802;-52
2024/02/05 10:55:45;;;;;;;;;4.00;3.00;;;;;13.41;100.00;97885.03;6238045;28;96689;-52
2024/02/05 10:58:48;;;;;;;;;2.00;2.00;;;;;13.53;100.00;97898.38;6238010;28;96428;-53
2024/02/05 11:01:58;;;;;;;;;2.00;2.00;;;;;13.55;100.00;97901.63;6237557;28;96304;-52
2024/02/05 11:05:02;;;;;;;;;2.00;2.00;;;;;13.57;100.00;97904.06;6238254;28;96574;-53
2024/02/05 11:08:12;;;;;;;;;3.00;3.00;;;;;13.37;100.00;97915.63;6229966;28;96169;-53
2024/02/05 11:11:16;;;;;;;;;3.00;2.00;;;;;13.59;100.00;97910.00;6241239;27;96421;-52
2024/02/05 11:14:20;;;;;;;;;3.00;2.00;;;;;13.58;100.00;97909.22;6242084;28;96335;-53
2024/02/05 11:17:25;;;;;;;;;2.80;2.80;;;;;13.63;100.00;97895.72;6242162;28;96394;-53
2024/02/05 11:20:31;;;;;;;;;1.80;1.80;;;;;13.60;100.00;97885.38;6242400;28;96335;-53
2024/02/05 11:23:37;;;;;;;;;1.25;1.25;;;;;13.30;100.00;97888.78;6242252;28;96401;-53
2024/02/05 11:26:41;;;;;;;;;4.00;4.00;;;;;13.50;100.00;97898.88;6242149;28;96425;-53
2024/02/05 11:29:44;;;;;;;;;2.00;2.00;;;;;13.41;100.00;97895.88;6243846;28;96364;-55
2024/02/05 11:32:47;;;;;;;;;3.00;3.00;;;;;13.58;100.00;97897.56;6247522;28;96373;-56
2024/02/05 11:35:50;;;;;;;;;1.50;1.50;;;;;13.66;100.00;97886.22;6247790;28;96286;-55
2024/02/05 11:39:01;;;;;;;;;4.00;4.00;;;;;13.58;100.00;97900.28;6229961;28;96378;-56
2024/02/05 11:42:08;;;;;;;;;2.00;2.00;;;;;13.48;100.00;97905.66;6248275;28;96356;-56
2024/02/05 11:45:11;;;;;;;;;2.00;2.00;;;;;13.47;100.00;97928.38;6247681;28;96295;-55
2024/02/05 11:48:15;;;;;;;;;3.00;3.00;;;;;13.39;100.00;97908.03;6247166;28;96379;-55
2024/02/05 11:51:19;;;;;;;;;3.00;3.00;;;;;13.30;100.00;97902.31;6247261;28;96289;-55
2024/02/05 11:54:23;;;;;;;;;3.40;3.00;;;;;13.52;100.00;97909.47;6247572;28;96362;-56
2024/02/05 11:57:26;;;;;;;;;2.00;2.00;;;;;13.36;100.00;97911.28;6246461;28;96357;-55
2024/02/05 12:00:30;;;;;;;;;2.50;2.00;;;;;13.31;100.00;97913.94;6246684;28;96386;-56
2024/02/05 12:03:33;;;;;;;;;2.80;2.80;;;;;13.30;100.00;97909.63;6246383;28;96404;-56
2024/02/05 12:06:36;;;;;;;;;3.00;3.00;;;;;13.35;100.00;97909.63;6246871;28;96222;-56
2024/02/05 12:09:41;;;;;;;;;2.00;2.00;;;;;13.57;100.00;97921.13;6247232;28;96418;-56
2024/02/05 12:12:44;;;;;;;;;2.50;2.50;;;;;13.49;100.00;97923.53;6233203;28;96346;-55
2024/02/05 12:15:47;;;;;;;;;2.00;2.00;;;;;13.56;100.00;97919.50;6244931;28;97046;-56
2024/02/05 12:18:52;;;;;;;;;2.00;2.00;;;;;13.53;100.00;97919.22;6245440;28;96314;-55
2024/02/05 12:22:02;;;;;;;;;3.00;3.00;;;;;13.53;100.00;97917.31;6239164;27;96570;-55
2024/02/05 12:25:07;;;;;;;;;3.00;3.00;;;;;13.64;100.00;97913.56;6245536;28;96411;-56
2024/02/05 12:28:14;;;;;;;;;2.00;2.00;;;;;13.56;100.00;97915.97;6245096;28;96747;-55
2024/02/05 12:31:21;;;;;;;;;2.40;2.00;;;;;13.41;100.00;97924.84;6246081;28;96239;-56
2024/02/05 12:34:25;;;;;;;;;3.00;3.00;;;;;13.53;100.00;97908.38;6228337;28;96799;-56
2024/02/05 12:37:29;;;;;;;;;3.00;2.00;;;;;13.49;100.00;97918.91;6245469;28;96705;-55
2024/02/05 12:40:34;;;;;;;;;4.00;3.00;;;;;13.53;100.00;97909.22;6243442;28;96529;-56
2024/02/05 12:43:37;;;;;;;;;3.00;2.00;;;;;13.44;100.00;97913.47;6239527;28;96388;-55
2024/02/05 12:46:40;;;;;;;;;3.00;3.00;;;;;13.43;100.00;97917.28;6239518;28;96704;-55
2024/02/05 12:49:44;;;;;;;;;3.00;2.40;;;;;13.44;100.00;97908.88;6239525;28;96602;-55
2024/02/05 12:52:48;;;;;;;;;3.00;2.60;;;;;13.66;100.00;97934.97;6238989;28;96220;-56
2024/02/05 12:55:53;;;;;;;;;3.00;3.00;;;;;13.77;100.00;97925.81;6239415;28;96301;-55
2024/02/05 12:58:56;;;;;;;;;3.00;2.50;;;;;13.76;100.00;97943.97;6239504;28;97586;-55
2024/02/05 13:01:59;;;;;;;;;3.00;3.00;;;;;13.76;100.00;97919.59;6238542;28;96529;-55
2024/02/05 13:05:04;;;;;;;;;3.00;3.00;;;;;13.58;100.00;97935.50;6239604;28;97218;-55
2024/02/05 13:08:09;;;;;;;;;4.00;3.80;;;;;13.58;100.00;97936.31;6239279;28;96289;-55
2024/02/05 13:11:14;;;;;;;;;3.00;3.00;;;;;13.60;100.00;97942.25;6239262;28;96823;-55
2024/02/05 13:14:17;;;;;;;;;4.00;3.00;;;;;13.38;100.00;97938.91;6239417;28;96245;-55
2024/02/05 13:17:21;;;;;;;;;4.00;3.80;;;;;13.46;100.00;97930.28;6239248;28;96299;-55
2024/02/05 13:20:24;;;;;;;;;7.00;7.00;;;;;13.57;100.00;97936.56;6219742;28;97901;-55
2024/02/05 13:23:27;;;;;;;;;7.00;6.00;;;;;13.59;100.00;97931.69;6228358;28;96285;-55
2024/02/05 13:26:31;;;;;;;;;5.00;5.00;;;;;13.68;100.00;97941.75;6238483;28;96401;-55
2024/02/05 13:29:34;;;;;;;;;4.00;4.00;;;;;13.73;100.00;97935.56;6230843;28;96338;-55
2024/02/05 13:32:38;;;;;;;;;4.60;4.40;;;;;13.66;100.00;97948.50;6238369;27;96273;-55
2024/02/05 13:35:42;;;;;;;;;4.80;3.40;;;;;13.70;100.00;97955.03;6220537;28;97261;-55
2024/02/05 13:38:45;;;;;;;;;4.00;3.40;;;;;13.81;100.00;97975.66;6236622;28;97637;-55
2024/02/05 13:41:50;;;;;;;;;4.00;4.00;;;;;13.78;100.00;97963.47;6237040;27;98153;-55
2024/02/05 13:44:53;;;;;;;;;4.00;4.00;;;;;13.77;100.00;97972.69;6238181;27;97744;-55
2024/02/05 13:47:56;;;;;;;;;5.00;3.00;;;;;13.72;100.00;97971.84;6219860;28;96633;-55
2024/02/05 13:51:01;;;;;;;;;4.25;4.00;;;;;13.78;100.00;97966.16;6240583;28;96342;-56
2024/02/05 13:54:04;;;;;;;;;2.00;2.00;;;;;13.81;100.00;97989.22;6225593;28;97113;-56
2024/02/05 13:57:09;;;;;;;;;2.00;2.00;;;;;13.69;100.00;97978.59;6243592;28;96292;-56
2024/02/05 14:00:13;;;;;;;;;5.00;3.00;;;;;13.59;100.00;97973.13;6241767;28;96494;-55
2024/02/05 14:03:17;;;;;;;;;3.25;3.00;;;;;13.68;100.00;97998.63;6242991;28;96361;-56
2024/02/05 14:06:21;;;;;;;;;3.00;3.00;;;;;13.59;100.00;98002.91;6236329;28;96916;-55
2024/02/05 14:09:25;;;;;;;;;3.40;3.00;;;;;13.53;100.00;98000.47;6235962;27;96985;-55
2024/02/05 14:12:29;;;;;;;;;3.00;2.00;;;;;13.35;100.00;97972.72;6234979;28;97035;-55
2024/02/05 14:15:32;;;;;;;;;5.00;4.75;;;;;13.55;100.00;97987.44;6232595;27;96356;-56
2024/02/05 14:18:39;;;;;;;;;3.60;3.60;;;;;13.49;100.00;98002.84;6227645;28;96496;-56